sensor_id;sensor_type;location;lat;lon;timestamp;temperature;humidity
26964;DHT22;14521;48.148;-1.656;2022-12-18T00:01:23;17.20;66.00
26964;DHT22;14521;48.148;-1.656;2022-12-18T00:04:45;17.20;65.80
26964;DHT22;14521;48.148;-1.656;2022-12-18T00:08:07;17.20;65.50
26964;DHT22;14521;48.148;-1.656;2022-12-18T00:11:31;17.20;65.50
26964;DHT22;14521;48.148;-1.656;2022-12-18T00:14:53;17.20;65.70
26964;DHT22;14521;48.148;-1.656;2022-12-18T00:18:16;17.30;65.50
26964;DHT22;14521;48.148;-1.656;2022-12-18T00:21:43;17.30;65.70
26964;DHT22;14521;48.148;-1.656;2022-12-18T00:25:05;17.30;65.50
26964;DHT22;14521;48.148;-1.656;2022-12-18T00:28:28;17.30;65.20
26964;DHT22;14521;48.148;-1.656;2022-12-18T00:31:50;17.30;65.30
26964;DHT22;14521;48.148;-1.656;2022-12-18T00:35:12;17.30;65.00
26964;DHT22;14521;48.148;-1.656;2022-12-18T00:38:36;17.30;65.00
26964;DHT22;14521;48.148;-1.656;2022-12-18T00:41:58;17.40;65.10
26964;DHT22;14521;48.148;-1.656;2022-12-18T00:45:39;17.40;65.10
26964;DHT22;14521;48.148;-1.656;2022-12-18T00:49:02;17.40;64.90
26964;DHT22;14521;48.148;-1.656;2022-12-18T00:52:24;17.40;65.10
26964;DHT22;14521;48.148;-1.656;2022-12-18T00:55:47;17.40;65.10
26964;DHT22;14521;48.148;-1.656;2022-12-18T00:59:11;17.40;65.00
26964;DHT22;14521;48.148;-1.656;2022-12-18T01:02:33;17.40;64.80
26964;DHT22;14521;48.148;-1.656;2022-12-18T01:05:56;17.40;64.80
26964;DHT22;14521;48.148;-1.656;2022-12-18T01:09:19;17.40;64.60
26964;DHT22;14521;48.148;-1.656;2022-12-18T01:12:41;17.40;65.20
26964;DHT22;14521;48.148;-1.656;2022-12-18T01:16:05;17.40;64.80
26964;DHT22;14521;48.148;-1.656;2022-12-18T01:19:29;17.40;65.10
26964;DHT22;14521;48.148;-1.656;2022-12-18T01:22:51;17.40;65.00
26964;DHT22;14521;48.148;-1.656;2022-12-18T01:26:15;17.40;65.70
26964;DHT22;14521;48.148;-1.656;2022-12-18T01:29:38;17.40;65.10
26964;DHT22;14521;48.148;-1.656;2022-12-18T01:33:00;17.40;64.90
26964;DHT22;14521;48.148;-1.656;2022-12-18T01:36:31;17.40;65.10
26964;DHT22;14521;48.148;-1.656;2022-12-18T01:39:54;17.40;65.20
26964;DHT22;14521;48.148;-1.656;2022-12-18T01:43:16;17.40;64.80
26964;DHT22;14521;48.148;-1.656;2022-12-18T01:46:40;17.40;64.80
26964;DHT22;14521;48.148;-1.656;2022-12-18T01:50:11;17.40;64.90
26964;DHT22;14521;48.148;-1.656;2022-12-18T01:53:36;17.40;64.60
26964;DHT22;14521;48.148;-1.656;2022-12-18T01:56:59;17.40;64.20
26964;DHT22;14521;48.148;-1.656;2022-12-18T02:00:24;17.40;64.60
26964;DHT22;14521;48.148;-1.656;2022-12-18T02:03:47;17.40;64.60
26964;DHT22;14521;48.148;-1.656;2022-12-18T02:11:05;17.40;64.30
26964;DHT22;14521;48.148;-1.656;2022-12-18T02:14:32;17.40;64.20
26964;DHT22;14521;48.148;-1.656;2022-12-18T02:18:14;17.40;64.30
26964;DHT22;14521;48.148;-1.656;2022-12-18T02:29:05;17.40;63.90
26964;DHT22;14521;48.148;-1.656;2022-12-18T02:32:35;17.40;64.10
26964;DHT22;14521;48.148;-1.656;2022-12-18T02:36:00;17.30;63.90
26964;DHT22;14521;48.148;-1.656;2022-12-18T02:39:26;17.30;63.90
26964;DHT22;14521;48.148;-1.656;2022-12-18T02:42:53;17.40;64.20
26964;DHT22;14521;48.148;-1.656;2022-12-18T02:57:24;17.30;64.10
26964;DHT22;14521;48.148;-1.656;2022-12-18T03:01:18;17.30;64.40
26964;DHT22;14521;48.148;-1.656;2022-12-18T03:05:16;17.30;64.20
26964;DHT22;14521;48.148;-1.656;2022-12-18T03:08:43;17.30;64.20
26964;DHT22;14521;48.148;-1.656;2022-12-18T03:15:51;17.30;64.10
26964;DHT22;14521;48.148;-1.656;2022-12-18T03:19:18;17.30;64.00
26964;DHT22;14521;48.148;-1.656;2022-12-18T03:22:46;17.30;63.80
26964;DHT22;14521;48.148;-1.656;2022-12-18T03:26:14;17.30;63.90
26964;DHT22;14521;48.148;-1.656;2022-12-18T03:29:52;17.30;63.90
26964;DHT22;14521;48.148;-1.656;2022-12-18T03:33:27;17.30;63.90
26964;DHT22;14521;48.148;-1.656;2022-12-18T03:36:52;17.30;63.70
26964;DHT22;14521;48.148;-1.656;2022-12-18T03:40:14;17.30;64.10
26964;DHT22;14521;48.148;-1.656;2022-12-18T03:44:24;17.30;63.70
26964;DHT22;14521;48.148;-1.656;2022-12-18T03:47:58;17.30;63.80
26964;DHT22;14521;48.148;-1.656;2022-12-18T03:55:02;17.20;63.70
26964;DHT22;14521;48.148;-1.656;2022-12-18T03:58:26;17.20;63.80
26964;DHT22;14521;48.148;-1.656;2022-12-18T04:01:59;17.20;63.80
26964;DHT22;14521;48.148;-1.656;2022-12-18T04:05:25;17.30;64.00
26964;DHT22;14521;48.148;-1.656;2022-12-18T04:08:49;17.20;63.90
26964;DHT22;14521;48.148;-1.656;2022-12-18T04:12:15;17.20;64.10
26964;DHT22;14521;48.148;-1.656;2022-12-18T04:15:40;17.20;64.20
26964;DHT22;14521;48.148;-1.656;2022-12-18T04:19:07;17.20;63.90
26964;DHT22;14521;48.148;-1.656;2022-12-18T04:22:34;17.20;63.80
26964;DHT22;14521;48.148;-1.656;2022-12-18T04:25:57;17.20;63.70
26964;DHT22;14521;48.148;-1.656;2022-12-18T04:29:37;17.20;64.20
26964;DHT22;14521;48.148;-1.656;2022-12-18T04:33:00;17.20;63.70
26964;DHT22;14521;48.148;-1.656;2022-12-18T04:36:25;17.20;63.90
26964;DHT22;14521;48.148;-1.656;2022-12-18T04:39:48;17.20;63.80
26964;DHT22;14521;48.148;-1.656;2022-12-18T04:43:17;17.20;63.80
26964;DHT22;14521;48.148;-1.656;2022-12-18T04:46:40;17.20;63.40
26964;DHT22;14521;48.148;-1.656;2022-12-18T04:50:02;17.20;63.40
26964;DHT22;14521;48.148;-1.656;2022-12-18T04:53:25;17.30;63.50
26964;DHT22;14521;48.148;-1.656;2022-12-18T04:56:47;17.30;64.00
26964;DHT22;14521;48.148;-1.656;2022-12-18T05:00:10;17.30;63.60
26964;DHT22;14521;48.148;-1.656;2022-12-18T05:03:34;17.30;63.90
26964;DHT22;14521;48.148;-1.656;2022-12-18T05:06:56;17.30;63.90
26964;DHT22;14521;48.148;-1.656;2022-12-18T05:10:19;17.30;64.20
26964;DHT22;14521;48.148;-1.656;2022-12-18T05:13:42;17.40;64.10
26964;DHT22;14521;48.148;-1.656;2022-12-18T05:17:05;17.50;63.80
26964;DHT22;14521;48.148;-1.656;2022-12-18T05:20:28;17.60;63.90
26964;DHT22;14521;48.148;-1.656;2022-12-18T05:23:50;17.70;63.90
26964;DHT22;14521;48.148;-1.656;2022-12-18T05:27:12;17.70;63.70
26964;DHT22;14521;48.148;-1.656;2022-12-18T05:30:35;17.80;63.70
26964;DHT22;14521;48.148;-1.656;2022-12-18T05:33:57;17.90;63.50
26964;DHT22;14521;48.148;-1.656;2022-12-18T05:37:20;17.90;63.20
26964;DHT22;14521;48.148;-1.656;2022-12-18T05:40:43;18.00;63.40
26964;DHT22;14521;48.148;-1.656;2022-12-18T05:44:05;18.00;63.50
26964;DHT22;14521;48.148;-1.656;2022-12-18T05:47:27;18.00;63.50
26964;DHT22;14521;48.148;-1.656;2022-12-18T05:50:51;18.10;63.50
26964;DHT22;14521;48.148;-1.656;2022-12-18T05:54:13;18.10;63.50
26964;DHT22;14521;48.148;-1.656;2022-12-18T05:57:35;18.20;63.60
26964;DHT22;14521;48.148;-1.656;2022-12-18T06:01:06;18.20;63.70
26964;DHT22;14521;48.148;-1.656;2022-12-18T06:04:29;18.20;63.70
26964;DHT22;14521;48.148;-1.656;2022-12-18T06:07:52;18.20;63.50
26964;DHT22;14521;48.148;-1.656;2022-12-18T06:11:24;18.20;63.50
26964;DHT22;14521;48.148;-1.656;2022-12-18T06:14:46;18.20;63.70
26964;DHT22;14521;48.148;-1.656;2022-12-18T06:18:08;18.20;63.60
26964;DHT22;14521;48.148;-1.656;2022-12-18T06:21:32;18.20;63.60
26964;DHT22;14521;48.148;-1.656;2022-12-18T06:24:54;18.20;63.50
26964;DHT22;14521;48.148;-1.656;2022-12-18T06:28:17;18.20;63.80
26964;DHT22;14521;48.148;-1.656;2022-12-18T06:31:39;18.20;63.70
26964;DHT22;14521;48.148;-1.656;2022-12-18T06:35:01;18.20;63.60
26964;DHT22;14521;48.148;-1.656;2022-12-18T06:38:24;18.20;64.60
26964;DHT22;14521;48.148;-1.656;2022-12-18T06:41:46;18.20;64.00
26964;DHT22;14521;48.148;-1.656;2022-12-18T06:45:09;18.20;64.10
26964;DHT22;14521;48.148;-1.656;2022-12-18T06:48:32;18.20;64.10
26964;DHT22;14521;48.148;-1.656;2022-12-18T06:51:54;18.30;64.10
26964;DHT22;14521;48.148;-1.656;2022-12-18T06:55:16;18.30;64.20
26964;DHT22;14521;48.148;-1.656;2022-12-18T06:58:39;18.30;64.20
26964;DHT22;14521;48.148;-1.656;2022-12-18T07:02:01;18.30;64.20
26964;DHT22;14521;48.148;-1.656;2022-12-18T07:05:24;18.30;64.20
26964;DHT22;14521;48.148;-1.656;2022-12-18T07:08:47;18.20;64.90
26964;DHT22;14521;48.148;-1.656;2022-12-18T07:12:09;18.20;63.50
26964;DHT22;14521;48.148;-1.656;2022-12-18T07:15:32;18.30;65.00
26964;DHT22;14521;48.148;-1.656;2022-12-18T07:18:55;18.30;64.10
26964;DHT22;14521;48.148;-1.656;2022-12-18T07:22:18;18.30;63.60
26964;DHT22;14521;48.148;-1.656;2022-12-18T07:25:40;18.30;63.40
26964;DHT22;14521;48.148;-1.656;2022-12-18T07:29:03;18.40;64.20
26964;DHT22;14521;48.148;-1.656;2022-12-18T07:32:25;18.50;65.20
26964;DHT22;14521;48.148;-1.656;2022-12-18T07:35:47;18.50;66.50
26964;DHT22;14521;48.148;-1.656;2022-12-18T07:39:11;18.50;67.20
26964;DHT22;14521;48.148;-1.656;2022-12-18T07:42:33;18.50;67.10
26964;DHT22;14521;48.148;-1.656;2022-12-18T07:45:56;18.50;67.90
26964;DHT22;14521;48.148;-1.656;2022-12-18T07:49:19;18.40;67.40
26964;DHT22;14521;48.148;-1.656;2022-12-18T07:52:41;18.50;67.90
26964;DHT22;14521;48.148;-1.656;2022-12-18T07:56:06;18.40;67.90
26964;DHT22;14521;48.148;-1.656;2022-12-18T07:59:49;18.40;68.50
26964;DHT22;14521;48.148;-1.656;2022-12-18T08:03:12;18.40;68.20
26964;DHT22;14521;48.148;-1.656;2022-12-18T08:06:35;18.40;68.40
26964;DHT22;14521;48.148;-1.656;2022-12-18T08:09:57;18.40;67.40
26964;DHT22;14521;48.148;-1.656;2022-12-18T08:13:19;18.50;67.90
26964;DHT22;14521;48.148;-1.656;2022-12-18T08:16:41;18.40;68.10
26964;DHT22;14521;48.148;-1.656;2022-12-18T08:20:04;18.40;66.70
26964;DHT22;14521;48.148;-1.656;2022-12-18T08:23:28;17.80;61.30
26964;DHT22;14521;48.148;-1.656;2022-12-18T08:26:50;17.70;65.90
26964;DHT22;14521;48.148;-1.656;2022-12-18T08:30:32;17.80;66.70
26964;DHT22;14521;48.148;-1.656;2022-12-18T08:33:55;17.90;66.90
26964;DHT22;14521;48.148;-1.656;2022-12-18T08:37:18;18.00;66.60
26964;DHT22;14521;48.148;-1.656;2022-12-18T08:40:40;18.00;66.50
26964;DHT22;14521;48.148;-1.656;2022-12-18T08:44:03;18.00;67.10
26964;DHT22;14521;48.148;-1.656;2022-12-18T08:47:44;17.90;66.00
26964;DHT22;14521;48.148;-1.656;2022-12-18T08:51:07;18.10;67.10
26964;DHT22;14521;48.148;-1.656;2022-12-18T08:54:31;18.00;66.70
26964;DHT22;14521;48.148;-1.656;2022-12-18T08:57:53;18.10;67.50
26964;DHT22;14521;48.148;-1.656;2022-12-18T09:01:16;18.10;67.50
26964;DHT22;14521;48.148;-1.656;2022-12-18T09:04:38;18.00;67.90
26964;DHT22;14521;48.148;-1.656;2022-12-18T09:08:02;18.00;67.00
26964;DHT22;14521;48.148;-1.656;2022-12-18T09:11:25;18.00;67.40
26964;DHT22;14521;48.148;-1.656;2022-12-18T09:14:48;18.00;68.40
26964;DHT22;14521;48.148;-1.656;2022-12-18T09:18:11;17.90;67.70
26964;DHT22;14521;48.148;-1.656;2022-12-18T09:21:35;17.90;67.80
26964;DHT22;14521;48.148;-1.656;2022-12-18T09:24:58;18.00;68.10
26964;DHT22;14521;48.148;-1.656;2022-12-18T09:28:21;18.00;68.80
26964;DHT22;14521;48.148;-1.656;2022-12-18T09:31:43;18.00;69.10
26964;DHT22;14521;48.148;-1.656;2022-12-18T09:35:05;17.90;69.30
26964;DHT22;14521;48.148;-1.656;2022-12-18T09:38:28;17.90;69.30
26964;DHT22;14521;48.148;-1.656;2022-12-18T09:41:53;17.90;69.10
26964;DHT22;14521;48.148;-1.656;2022-12-18T09:45:15;17.90;69.40
26964;DHT22;14521;48.148;-1.656;2022-12-18T09:48:42;17.90;68.50
26964;DHT22;14521;48.148;-1.656;2022-12-18T09:52:35;17.90;68.70
26964;DHT22;14521;48.148;-1.656;2022-12-18T09:56:01;17.80;67.80
26964;DHT22;14521;48.148;-1.656;2022-12-18T09:59:35;17.80;69.10
26964;DHT22;14521;48.148;-1.656;2022-12-18T10:03:10;17.70;69.10
26964;DHT22;14521;48.148;-1.656;2022-12-18T10:06:49;17.70;68.90
26964;DHT22;14521;48.148;-1.656;2022-12-18T10:14:01;17.70;68.60
26964;DHT22;14521;48.148;-1.656;2022-12-18T10:17:48;17.60;68.60
26964;DHT22;14521;48.148;-1.656;2022-12-18T10:21:18;17.60;68.70
26964;DHT22;14521;48.148;-1.656;2022-12-18T10:28:24;17.60;67.70
26964;DHT22;14521;48.148;-1.656;2022-12-18T10:31:47;17.50;68.70
26964;DHT22;14521;48.148;-1.656;2022-12-18T10:35:25;17.50;69.20
26964;DHT22;14521;48.148;-1.656;2022-12-18T10:38:47;17.50;69.40
26964;DHT22;14521;48.148;-1.656;2022-12-18T10:42:18;17.60;70.10
26964;DHT22;14521;48.148;-1.656;2022-12-18T10:45:41;17.50;70.50
26964;DHT22;14521;48.148;-1.656;2022-12-18T10:49:04;17.60;71.50
26964;DHT22;14521;48.148;-1.656;2022-12-18T10:52:29;17.50;73.00
26964;DHT22;14521;48.148;-1.656;2022-12-18T10:55:53;17.60;73.50
26964;DHT22;14521;48.148;-1.656;2022-12-18T10:59:17;17.50;74.10
26964;DHT22;14521;48.148;-1.656;2022-12-18T11:02:40;17.50;74.40
26964;DHT22;14521;48.148;-1.656;2022-12-18T11:06:05;17.50;75.10
26964;DHT22;14521;48.148;-1.656;2022-12-18T11:09:36;17.50;76.20
26964;DHT22;14521;48.148;-1.656;2022-12-18T11:13:23;17.50;77.10
26964;DHT22;14521;48.148;-1.656;2022-12-18T11:16:48;17.50;78.20
26964;DHT22;14521;48.148;-1.656;2022-12-18T11:20:35;17.50;78.50
26964;DHT22;14521;48.148;-1.656;2022-12-18T11:23:58;17.60;78.20
26964;DHT22;14521;48.148;-1.656;2022-12-18T11:27:21;17.60;77.10
26964;DHT22;14521;48.148;-1.656;2022-12-18T11:30:43;17.60;76.90
26964;DHT22;14521;48.148;-1.656;2022-12-18T11:37:57;17.60;75.90
26964;DHT22;14521;48.148;-1.656;2022-12-18T11:42:12;17.70;76.10
26964;DHT22;14521;48.148;-1.656;2022-12-18T11:45:47;17.70;75.00
26964;DHT22;14521;48.148;-1.656;2022-12-18T11:49:18;17.60;75.10
26964;DHT22;14521;48.148;-1.656;2022-12-18T11:52:42;17.60;75.10
26964;DHT22;14521;48.148;-1.656;2022-12-18T11:59:56;17.70;74.40
26964;DHT22;14521;48.148;-1.656;2022-12-18T12:17:52;17.60;70.70
26964;DHT22;14521;48.148;-1.656;2022-12-18T12:36:05;17.80;79.80
26964;DHT22;14521;48.148;-1.656;2022-12-18T12:39:40;17.80;79.80
26964;DHT22;14521;48.148;-1.656;2022-12-18T12:46:37;17.90;79.20
26964;DHT22;14521;48.148;-1.656;2022-12-18T12:50:04;17.90;79.10
26964;DHT22;14521;48.148;-1.656;2022-12-18T12:53:32;17.90;78.90
26964;DHT22;14521;48.148;-1.656;2022-12-18T12:57:09;17.80;79.10
26964;DHT22;14521;48.148;-1.656;2022-12-18T13:00:41;17.80;80.30
26964;DHT22;14521;48.148;-1.656;2022-12-18T13:04:40;17.80;79.50
26964;DHT22;14521;48.148;-1.656;2022-12-18T13:08:21;17.80;80.50
26964;DHT22;14521;48.148;-1.656;2022-12-18T13:11:46;17.70;74.20
26964;DHT22;14521;48.148;-1.656;2022-12-18T13:15:40;17.70;79.10
26964;DHT22;14521;48.148;-1.656;2022-12-18T13:19:04;17.70;78.80
26964;DHT22;14521;48.148;-1.656;2022-12-18T13:22:47;17.60;78.40
26964;DHT22;14521;48.148;-1.656;2022-12-18T13:29:47;17.60;77.40
26964;DHT22;14521;48.148;-1.656;2022-12-18T13:36:44;17.50;76.80
26964;DHT22;14521;48.148;-1.656;2022-12-18T13:47:47;17.40;75.60
26964;DHT22;14521;48.148;-1.656;2022-12-18T13:51:10;17.40;75.20
26964;DHT22;14521;48.148;-1.656;2022-12-18T13:54:42;17.40;75.00
26964;DHT22;14521;48.148;-1.656;2022-12-18T13:58:11;17.40;74.80
26964;DHT22;14521;48.148;-1.656;2022-12-18T14:01:33;17.40;74.50
26964;DHT22;14521;48.148;-1.656;2022-12-18T14:04:56;17.30;74.30
26964;DHT22;14521;48.148;-1.656;2022-12-18T14:08:19;17.30;73.90
26964;DHT22;14521;48.148;-1.656;2022-12-18T14:11:47;17.30;74.00
26964;DHT22;14521;48.148;-1.656;2022-12-18T14:15:39;17.30;73.90
26964;DHT22;14521;48.148;-1.656;2022-12-18T14:19:02;17.20;73.70
26964;DHT22;14521;48.148;-1.656;2022-12-18T14:22:36;17.20;73.70
26964;DHT22;14521;48.148;-1.656;2022-12-18T14:25:59;17.20;73.60
26964;DHT22;14521;48.148;-1.656;2022-12-18T14:29:30;17.20;73.50
26964;DHT22;14521;48.148;-1.656;2022-12-18T14:33:09;17.20;73.30
26964;DHT22;14521;48.148;-1.656;2022-12-18T14:36:32;17.20;73.20
26964;DHT22;14521;48.148;-1.656;2022-12-18T14:39:59;17.10;73.10
26964;DHT22;14521;48.148;-1.656;2022-12-18T14:43:39;17.10;72.90
26964;DHT22;14521;48.148;-1.656;2022-12-18T14:47:02;17.10;72.80
26964;DHT22;14521;48.148;-1.656;2022-12-18T14:50:24;17.10;72.80
26964;DHT22;14521;48.148;-1.656;2022-12-18T14:53:49;17.10;72.80
26964;DHT22;14521;48.148;-1.656;2022-12-18T14:57:32;17.10;72.60
26964;DHT22;14521;48.148;-1.656;2022-12-18T15:00:57;17.10;72.80
26964;DHT22;14521;48.148;-1.656;2022-12-18T15:04:33;17.10;73.10
26964;DHT22;14521;48.148;-1.656;2022-12-18T15:08:00;17.00;75.30
26964;DHT22;14521;48.148;-1.656;2022-12-18T15:11:54;17.10;74.90
26964;DHT22;14521;48.148;-1.656;2022-12-18T15:18:57;17.10;75.70
26964;DHT22;14521;48.148;-1.656;2022-12-18T15:22:27;17.20;74.70
26964;DHT22;14521;48.148;-1.656;2022-12-18T15:26:01;17.20;74.50
26964;DHT22;14521;48.148;-1.656;2022-12-18T15:29:24;17.30;74.40
26964;DHT22;14521;48.148;-1.656;2022-12-18T15:32:48;17.30;74.20
26964;DHT22;14521;48.148;-1.656;2022-12-18T15:36:14;17.30;74.10
26964;DHT22;14521;48.148;-1.656;2022-12-18T15:39:39;17.40;74.30
26964;DHT22;14521;48.148;-1.656;2022-12-18T15:43:01;17.40;74.10
26964;DHT22;14521;48.148;-1.656;2022-12-18T15:46:42;17.40;74.10
26964;DHT22;14521;48.148;-1.656;2022-12-18T15:50:05;17.40;73.80
26964;DHT22;14521;48.148;-1.656;2022-12-18T15:53:31;17.40;73.90
26964;DHT22;14521;48.148;-1.656;2022-12-18T15:56:54;17.40;74.00
26964;DHT22;14521;48.148;-1.656;2022-12-18T16:00:37;17.40;73.50
26964;DHT22;14521;48.148;-1.656;2022-12-18T16:04:00;17.40;73.20
26964;DHT22;14521;48.148;-1.656;2022-12-18T16:07:22;17.50;73.40
26964;DHT22;14521;48.148;-1.656;2022-12-18T16:10:47;17.50;73.50
26964;DHT22;14521;48.148;-1.656;2022-12-18T16:14:20;17.50;74.20
26964;DHT22;14521;48.148;-1.656;2022-12-18T16:17:43;17.50;74.10
26964;DHT22;14521;48.148;-1.656;2022-12-18T16:21:08;17.50;74.00
26964;DHT22;14521;48.148;-1.656;2022-12-18T16:24:33;17.50;73.80
26964;DHT22;14521;48.148;-1.656;2022-12-18T16:27:58;17.50;74.00
26964;DHT22;14521;48.148;-1.656;2022-12-18T16:31:20;17.50;73.80
26964;DHT22;14521;48.148;-1.656;2022-12-18T16:34:43;17.50;73.40
26964;DHT22;14521;48.148;-1.656;2022-12-18T16:38:05;17.50;72.60
26964;DHT22;14521;48.148;-1.656;2022-12-18T16:41:28;17.50;76.60
26964;DHT22;14521;48.148;-1.656;2022-12-18T16:44:53;17.60;80.80
26964;DHT22;14521;48.148;-1.656;2022-12-18T16:48:15;17.60;80.70
26964;DHT22;14521;48.148;-1.656;2022-12-18T16:51:38;17.60;78.70
26964;DHT22;14521;48.148;-1.656;2022-12-18T16:55:00;17.70;80.20
26964;DHT22;14521;48.148;-1.656;2022-12-18T16:58:23;17.90;77.60
26964;DHT22;14521;48.148;-1.656;2022-12-18T17:01:45;17.90;77.80
26964;DHT22;14521;48.148;-1.656;2022-12-18T17:05:07;18.00;79.10
26964;DHT22;14521;48.148;-1.656;2022-12-18T17:08:32;18.00;80.00
26964;DHT22;14521;48.148;-1.656;2022-12-18T17:11:55;18.00;80.10
26964;DHT22;14521;48.148;-1.656;2022-12-18T17:15:17;18.00;80.10
26964;DHT22;14521;48.148;-1.656;2022-12-18T17:18:40;18.10;78.50
26964;DHT22;14521;48.148;-1.656;2022-12-18T17:22:03;18.10;76.90
26964;DHT22;14521;48.148;-1.656;2022-12-18T17:25:26;18.00;77.40
26964;DHT22;14521;48.148;-1.656;2022-12-18T17:28:48;18.00;78.00
26964;DHT22;14521;48.148;-1.656;2022-12-18T17:32:10;18.10;78.40
26964;DHT22;14521;48.148;-1.656;2022-12-18T17:35:34;18.10;78.40
26964;DHT22;14521;48.148;-1.656;2022-12-18T17:39:00;18.10;78.40
26964;DHT22;14521;48.148;-1.656;2022-12-18T17:42:22;18.10;78.50
26964;DHT22;14521;48.148;-1.656;2022-12-18T17:45:45;18.10;79.40
26964;DHT22;14521;48.148;-1.656;2022-12-18T17:49:07;18.10;78.40
26964;DHT22;14521;48.148;-1.656;2022-12-18T17:52:30;18.10;78.40
26964;DHT22;14521;48.148;-1.656;2022-12-18T17:55:57;18.20;78.20
26964;DHT22;14521;48.148;-1.656;2022-12-18T17:59:23;18.30;74.10
26964;DHT22;14521;48.148;-1.656;2022-12-18T18:02:45;18.20;75.80
26964;DHT22;14521;48.148;-1.656;2022-12-18T18:06:08;18.30;76.90
26964;DHT22;14521;48.148;-1.656;2022-12-18T18:09:30;18.30;77.20
26964;DHT22;14521;48.148;-1.656;2022-12-18T18:12:53;18.30;77.20
26964;DHT22;14521;48.148;-1.656;2022-12-18T18:16:37;18.30;77.50
26964;DHT22;14521;48.148;-1.656;2022-12-18T18:19:59;18.30;77.90
26964;DHT22;14521;48.148;-1.656;2022-12-18T18:23:25;18.30;78.00
26964;DHT22;14521;48.148;-1.656;2022-12-18T18:26:49;18.40;78.20
26964;DHT22;14521;48.148;-1.656;2022-12-18T18:30:12;18.40;78.00
26964;DHT22;14521;48.148;-1.656;2022-12-18T18:33:35;18.40;78.00
26964;DHT22;14521;48.148;-1.656;2022-12-18T18:36:58;18.40;78.00
26964;DHT22;14521;48.148;-1.656;2022-12-18T18:40:20;18.40;78.30
26964;DHT22;14521;48.148;-1.656;2022-12-18T18:43:43;18.40;77.90
26964;DHT22;14521;48.148;-1.656;2022-12-18T18:47:05;18.40;78.10
26964;DHT22;14521;48.148;-1.656;2022-12-18T18:50:30;18.40;78.80
26964;DHT22;14521;48.148;-1.656;2022-12-18T18:53:53;18.40;78.90
26964;DHT22;14521;48.148;-1.656;2022-12-18T18:57:15;18.40;79.60
26964;DHT22;14521;48.148;-1.656;2022-12-18T19:00:43;18.40;79.30
26964;DHT22;14521;48.148;-1.656;2022-12-18T19:04:07;18.40;79.30
26964;DHT22;14521;48.148;-1.656;2022-12-18T19:07:29;18.40;79.70
26964;DHT22;14521;48.148;-1.656;2022-12-18T19:10:54;18.40;79.80
26964;DHT22;14521;48.148;-1.656;2022-12-18T19:14:18;18.40;79.90
26964;DHT22;14521;48.148;-1.656;2022-12-18T19:17:43;18.40;79.30
26964;DHT22;14521;48.148;-1.656;2022-12-18T19:21:09;18.40;78.80
26964;DHT22;14521;48.148;-1.656;2022-12-18T19:24:32;18.40;79.60
26964;DHT22;14521;48.148;-1.656;2022-12-18T19:27:54;18.40;79.80
26964;DHT22;14521;48.148;-1.656;2022-12-18T19:31:17;18.40;78.60
26964;DHT22;14521;48.148;-1.656;2022-12-18T19:34:47;18.40;79.00
26964;DHT22;14521;48.148;-1.656;2022-12-18T19:38:10;18.40;78.80
26964;DHT22;14521;48.148;-1.656;2022-12-18T19:41:32;18.40;79.70
26964;DHT22;14521;48.148;-1.656;2022-12-18T19:44:56;18.40;79.30
26964;DHT22;14521;48.148;-1.656;2022-12-18T19:48:18;18.50;80.10
26964;DHT22;14521;48.148;-1.656;2022-12-18T19:51:40;18.50;79.40
26964;DHT22;14521;48.148;-1.656;2022-12-18T19:55:03;18.50;79.70
26964;DHT22;14521;48.148;-1.656;2022-12-18T19:58:25;18.50;79.60
26964;DHT22;14521;48.148;-1.656;2022-12-18T20:01:47;18.30;77.30
26964;DHT22;14521;48.148;-1.656;2022-12-18T20:05:12;18.20;77.80
26964;DHT22;14521;48.148;-1.656;2022-12-18T20:08:35;18.30;78.40
26964;DHT22;14521;48.148;-1.656;2022-12-18T20:11:58;18.30;78.40
26964;DHT22;14521;48.148;-1.656;2022-12-18T20:15:21;18.20;78.80
26964;DHT22;14521;48.148;-1.656;2022-12-18T20:18:43;18.20;78.40
26964;DHT22;14521;48.148;-1.656;2022-12-18T20:22:06;18.20;78.20
26964;DHT22;14521;48.148;-1.656;2022-12-18T20:25:28;18.30;78.90
26964;DHT22;14521;48.148;-1.656;2022-12-18T20:28:52;18.30;78.20
26964;DHT22;14521;48.148;-1.656;2022-12-18T20:32:15;18.30;78.30
26964;DHT22;14521;48.148;-1.656;2022-12-18T20:35:37;18.30;78.20
26964;DHT22;14521;48.148;-1.656;2022-12-18T20:39:01;18.30;78.20
26964;DHT22;14521;48.148;-1.656;2022-12-18T20:42:26;18.30;77.80
26964;DHT22;14521;48.148;-1.656;2022-12-18T20:45:48;18.40;78.00
26964;DHT22;14521;48.148;-1.656;2022-12-18T20:49:10;18.40;78.00
26964;DHT22;14521;48.148;-1.656;2022-12-18T20:52:33;18.40;78.30
26964;DHT22;14521;48.148;-1.656;2022-12-18T20:55:55;18.30;78.10
26964;DHT22;14521;48.148;-1.656;2022-12-18T20:59:17;18.30;77.90
26964;DHT22;14521;48.148;-1.656;2022-12-18T21:02:43;18.30;77.60
26964;DHT22;14521;48.148;-1.656;2022-12-18T21:06:07;18.30;77.70
26964;DHT22;14521;48.148;-1.656;2022-12-18T21:09:30;18.30;77.60
26964;DHT22;14521;48.148;-1.656;2022-12-18T21:12:59;18.30;77.60
26964;DHT22;14521;48.148;-1.656;2022-12-18T21:16:27;18.20;77.40
26964;DHT22;14521;48.148;-1.656;2022-12-18T21:19:49;18.20;77.30
26964;DHT22;14521;48.148;-1.656;2022-12-18T21:23:12;18.20;77.30
26964;DHT22;14521;48.148;-1.656;2022-12-18T21:26:38;18.20;77.40
26964;DHT22;14521;48.148;-1.656;2022-12-18T21:30:07;18.20;77.30
26964;DHT22;14521;48.148;-1.656;2022-12-18T21:33:29;18.20;77.00
26964;DHT22;14521;48.148;-1.656;2022-12-18T21:36:53;18.20;77.20
26964;DHT22;14521;48.148;-1.656;2022-12-18T21:40:16;18.20;77.00
26964;DHT22;14521;48.148;-1.656;2022-12-18T21:43:38;18.10;76.90
26964;DHT22;14521;48.148;-1.656;2022-12-18T21:47:19;18.10;76.80
26964;DHT22;14521;48.148;-1.656;2022-12-18T21:50:44;18.10;76.80
26964;DHT22;14521;48.148;-1.656;2022-12-18T21:54:06;18.10;76.80
26964;DHT22;14521;48.148;-1.656;2022-12-18T21:57:28;18.00;76.80
26964;DHT22;14521;48.148;-1.656;2022-12-18T22:00:52;18.10;76.80
26964;DHT22;14521;48.148;-1.656;2022-12-18T22:04:15;18.00;76.80
26964;DHT22;14521;48.148;-1.656;2022-12-18T22:07:38;18.00;76.80
26964;DHT22;14521;48.148;-1.656;2022-12-18T22:11:00;18.00;76.80
26964;DHT22;14521;48.148;-1.656;2022-12-18T22:14:23;18.00;76.80
26964;DHT22;14521;48.148;-1.656;2022-12-18T22:17:46;17.90;76.70
26964;DHT22;14521;48.148;-1.656;2022-12-18T22:21:27;17.90;76.70
26964;DHT22;14521;48.148;-1.656;2022-12-18T22:24:51;18.00;76.80
26964;DHT22;14521;48.148;-1.656;2022-12-18T22:28:13;17.90;76.60
26964;DHT22;14521;48.148;-1.656;2022-12-18T22:31:54;17.90;76.50
26964;DHT22;14521;48.148;-1.656;2022-12-18T22:35:16;17.90;76.40
26964;DHT22;14521;48.148;-1.656;2022-12-18T22:38:38;17.90;76.30
26964;DHT22;14521;48.148;-1.656;2022-12-18T22:42:00;17.90;76.30
26964;DHT22;14521;48.148;-1.656;2022-12-18T22:45:26;17.90;76.20
26964;DHT22;14521;48.148;-1.656;2022-12-18T22:48:49;17.90;76.30
26964;DHT22;14521;48.148;-1.656;2022-12-18T22:52:11;17.80;76.20
26964;DHT22;14521;48.148;-1.656;2022-12-18T22:55:35;17.90;76.70